sensor_id;sensor_type;location;lat;lon;timestamp;P1;durP1;ratioP1;P2;durP2;ratioP2
26062;SDS011;13837;48.562;12.108;2023-04-24T00:00:55;10.73;;;7.25;;
26062;SDS011;13837;48.562;12.108;2023-04-24T00:03:22;11.70;;;7.72;;
26062;SDS011;13837;48.562;12.108;2023-04-24T00:05:48;13.63;;;6.70;;
26062;SDS011;13837;48.562;12.108;2023-04-24T00:08:15;10.20;;;7.18;;
26062;SDS011;13837;48.562;12.108;2023-04-24T00:10:41;10.05;;;7.20;;
26062;SDS011;13837;48.562;12.108;2023-04-24T00:13:07;10.13;;;7.05;;
26062;SDS011;13837;48.562;12.108;2023-04-24T00:15:33;11.07;;;7.45;;
26062;SDS011;13837;48.562;12.108;2023-04-24T00:17:59;12.43;;;7.70;;
26062;SDS011;13837;48.562;12.108;2023-04-24T00:20:26;10.27;;;8.02;;
26062;SDS011;13837;48.562;12.108;2023-04-24T00:22:54;12.45;;;8.13;;
26062;SDS011;13837;48.562;12.108;2023-04-24T00:25:20;14.82;;;8.70;;
26062;SDS011;13837;48.562;12.108;2023-04-24T00:27:46;12.20;;;9.10;;
26062;SDS011;13837;48.562;12.108;2023-04-24T00:30:13;13.98;;;8.85;;
26062;SDS011;13837;48.562;12.108;2023-04-24T00:32:39;10.43;;;8.43;;
26062;SDS011;13837;48.562;12.108;2023-04-24T00:35:05;13.38;;;8.38;;
26062;SDS011;13837;48.562;12.108;2023-04-24T00:37:31;12.45;;;8.48;;
26062;SDS011;13837;48.562;12.108;2023-04-24T00:39:57;10.23;;;7.32;;
26062;SDS011;13837;48.562;12.108;2023-04-24T00:42:23;10.63;;;6.63;;
26062;SDS011;13837;48.562;12.108;2023-04-24T00:44:50;9.55;;;7.07;;
26062;SDS011;13837;48.562;12.108;2023-04-24T00:47:16;8.40;;;6.82;;
26062;SDS011;13837;48.562;12.108;2023-04-24T00:49:44;9.38;;;6.57;;
26062;SDS011;13837;48.562;12.108;2023-04-24T00:52:11;10.70;;;6.13;;
26062;SDS011;13837;48.562;12.108;2023-04-24T00:54:37;9.05;;;5.93;;
26062;SDS011;13837;48.562;12.108;2023-04-24T00:57:03;8.52;;;5.97;;
26062;SDS011;13837;48.562;12.108;2023-04-24T00:59:29;9.02;;;5.85;;
26062;SDS011;13837;48.562;12.108;2023-04-24T01:01:56;6.85;;;5.15;;
26062;SDS011;13837;48.562;12.108;2023-04-24T01:04:23;9.68;;;5.82;;
26062;SDS011;13837;48.562;12.108;2023-04-24T01:06:51;8.45;;;5.22;;
26062;SDS011;13837;48.562;12.108;2023-04-24T01:09:17;7.97;;;5.72;;
26062;SDS011;13837;48.562;12.108;2023-04-24T01:11:43;9.35;;;5.47;;
26062;SDS011;13837;48.562;12.108;2023-04-24T01:14:10;4.97;;;4.43;;
26062;SDS011;13837;48.562;12.108;2023-04-24T01:16:37;6.25;;;4.68;;
26062;SDS011;13837;48.562;12.108;2023-04-24T01:19:05;7.25;;;5.30;;
26062;SDS011;13837;48.562;12.108;2023-04-24T01:21:32;6.18;;;4.45;;
26062;SDS011;13837;48.562;12.108;2023-04-24T01:24:00;5.22;;;4.72;;
26062;SDS011;13837;48.562;12.108;2023-04-24T01:26:27;4.75;;;4.22;;
26062;SDS011;13837;48.562;12.108;2023-04-24T01:28:53;7.03;;;4.50;;
26062;SDS011;13837;48.562;12.108;2023-04-24T01:31:19;4.22;;;3.90;;
26062;SDS011;13837;48.562;12.108;2023-04-24T01:33:45;5.40;;;4.15;;
26062;SDS011;13837;48.562;12.108;2023-04-24T01:36:12;4.50;;;4.07;;
26062;SDS011;13837;48.562;12.108;2023-04-24T01:38:39;4.55;;;4.15;;
26062;SDS011;13837;48.562;12.108;2023-04-24T01:41:05;4.50;;;4.10;;
26062;SDS011;13837;48.562;12.108;2023-04-24T01:43:31;5.15;;;4.25;;
26062;SDS011;13837;48.562;12.108;2023-04-24T01:45:58;4.93;;;4.38;;
26062;SDS011;13837;48.562;12.108;2023-04-24T01:48:24;4.30;;;3.90;;
26062;SDS011;13837;48.562;12.108;2023-04-24T01:50:51;5.63;;;4.22;;
26062;SDS011;13837;48.562;12.108;2023-04-24T01:53:17;5.95;;;4.20;;
26062;SDS011;13837;48.562;12.108;2023-04-24T01:55:43;3.78;;;3.35;;
26062;SDS011;13837;48.562;12.108;2023-04-24T01:58:11;6.00;;;4.15;;
26062;SDS011;13837;48.562;12.108;2023-04-24T02:00:37;4.10;;;3.70;;
26062;SDS011;13837;48.562;12.108;2023-04-24T02:03:03;4.65;;;3.72;;
26062;SDS011;13837;48.562;12.108;2023-04-24T02:05:29;4.45;;;3.72;;
26062;SDS011;13837;48.562;12.108;2023-04-24T02:07:55;5.13;;;4.10;;
26062;SDS011;13837;48.562;12.108;2023-04-24T02:10:22;4.60;;;4.20;;
26062;SDS011;13837;48.562;12.108;2023-04-24T02:12:48;3.90;;;3.60;;
26062;SDS011;13837;48.562;12.108;2023-04-24T02:15:14;4.22;;;3.78;;
26062;SDS011;13837;48.562;12.108;2023-04-24T02:17:40;4.22;;;3.83;;
26062;SDS011;13837;48.562;12.108;2023-04-24T02:20:06;4.55;;;3.60;;
26062;SDS011;13837;48.562;12.108;2023-04-24T02:22:32;3.90;;;3.60;;
26062;SDS011;13837;48.562;12.108;2023-04-24T02:25:00;4.13;;;3.72;;
26062;SDS011;13837;48.562;12.108;2023-04-24T02:27:26;6.65;;;3.72;;
26062;SDS011;13837;48.562;12.108;2023-04-24T02:29:52;4.70;;;3.65;;
26062;SDS011;13837;48.562;12.108;2023-04-24T02:32:19;4.90;;;4.18;;
26062;SDS011;13837;48.562;12.108;2023-04-24T02:34:45;4.32;;;3.70;;
26062;SDS011;13837;48.562;12.108;2023-04-24T02:37:11;6.40;;;4.35;;
26062;SDS011;13837;48.562;12.108;2023-04-24T02:39:37;4.03;;;3.63;;
26062;SDS011;13837;48.562;12.108;2023-04-24T02:42:04;3.95;;;3.60;;
26062;SDS011;13837;48.562;12.108;2023-04-24T02:44:30;4.03;;;3.63;;
26062;SDS011;13837;48.562;12.108;2023-04-24T02:46:56;4.10;;;3.45;;
26062;SDS011;13837;48.562;12.108;2023-04-24T02:49:22;4.03;;;3.40;;
26062;SDS011;13837;48.562;12.108;2023-04-24T02:51:48;5.28;;;3.70;;
26062;SDS011;13837;48.562;12.108;2023-04-24T02:54:14;4.72;;;3.85;;
26062;SDS011;13837;48.562;12.108;2023-04-24T02:56:40;4.80;;;4.03;;
26062;SDS011;13837;48.562;12.108;2023-04-24T02:59:07;4.22;;;3.83;;
26062;SDS011;13837;48.562;12.108;2023-04-24T03:01:33;4.38;;;3.88;;
26062;SDS011;13837;48.562;12.108;2023-04-24T03:04:00;6.22;;;3.63;;
26062;SDS011;13837;48.562;12.108;2023-04-24T03:06:26;3.72;;;3.42;;
26062;SDS011;13837;48.562;12.108;2023-04-24T03:08:53;5.15;;;3.88;;
26062;SDS011;13837;48.562;12.108;2023-04-24T03:11:19;4.15;;;3.85;;
26062;SDS011;13837;48.562;12.108;2023-04-24T03:13:45;4.72;;;3.38;;
26062;SDS011;13837;48.562;12.108;2023-04-24T03:16:12;5.30;;;3.92;;
26062;SDS011;13837;48.562;12.108;2023-04-24T03:18:38;6.43;;;3.70;;
26062;SDS011;13837;48.562;12.108;2023-04-24T03:21:05;4.05;;;3.70;;
26062;SDS011;13837;48.562;12.108;2023-04-24T03:23:31;4.78;;;3.70;;
26062;SDS011;13837;48.562;12.108;2023-04-24T03:25:57;4.63;;;3.55;;
26062;SDS011;13837;48.562;12.108;2023-04-24T03:28:23;4.93;;;3.05;;
26062;SDS011;13837;48.562;12.108;2023-04-24T03:31:03;9.23;;;6.95;;
26062;SDS011;13837;48.562;12.108;2023-04-24T03:33:32;5.35;;;3.20;;
26062;SDS011;13837;48.562;12.108;2023-04-24T03:36:00;5.07;;;2.80;;
26062;SDS011;13837;48.562;12.108;2023-04-24T03:38:33;3.42;;;3.13;;
26062;SDS011;13837;48.562;12.108;2023-04-24T03:41:08;4.88;;;3.08;;
26062;SDS011;13837;48.562;12.108;2023-04-24T03:43:47;2.78;;;2.58;;
26062;SDS011;13837;48.562;12.108;2023-04-24T03:46:14;4.43;;;2.95;;
26062;SDS011;13837;48.562;12.108;2023-04-24T03:48:46;3.03;;;2.58;;
26062;SDS011;13837;48.562;12.108;2023-04-24T03:51:14;3.10;;;2.90;;
26062;SDS011;13837;48.562;12.108;2023-04-24T03:53:44;3.20;;;2.90;;
26062;SDS011;13837;48.562;12.108;2023-04-24T03:58:40;3.10;;;2.80;;
26062;SDS011;13837;48.562;12.108;2023-04-24T04:01:06;4.93;;;2.60;;
26062;SDS011;13837;48.562;12.108;2023-04-24T04:03:46;3.20;;;2.70;;
26062;SDS011;13837;48.562;12.108;2023-04-24T04:06:15;3.05;;;2.85;;
26062;SDS011;13837;48.562;12.108;2023-04-24T04:08:41;2.88;;;2.67;;
26062;SDS011;13837;48.562;12.108;2023-04-24T04:11:08;2.60;;;2.45;;
26062;SDS011;13837;48.562;12.108;2023-04-24T04:13:34;3.75;;;2.47;;
26062;SDS011;13837;48.562;12.108;2023-04-24T04:16:00;2.70;;;2.45;;
26062;SDS011;13837;48.562;12.108;2023-04-24T04:18:26;2.45;;;2.28;;
26062;SDS011;13837;48.562;12.108;2023-04-24T04:20:53;5.55;;;3.00;;
26062;SDS011;13837;48.562;12.108;2023-04-24T04:23:19;2.33;;;2.20;;
26062;SDS011;13837;48.562;12.108;2023-04-24T04:25:59;2.88;;;2.63;;
26062;SDS011;13837;48.562;12.108;2023-04-24T04:28:36;2.55;;;2.45;;
26062;SDS011;13837;48.562;12.108;2023-04-24T04:31:04;2.60;;;2.40;;
26062;SDS011;13837;48.562;12.108;2023-04-24T04:33:33;3.90;;;3.10;;
26062;SDS011;13837;48.562;12.108;2023-04-24T04:35:59;4.60;;;2.83;;
26062;SDS011;13837;48.562;12.108;2023-04-24T04:38:28;2.33;;;2.05;;
26062;SDS011;13837;48.562;12.108;2023-04-24T04:41:05;2.25;;;2.15;;
26062;SDS011;13837;48.562;12.108;2023-04-24T04:43:32;3.20;;;2.92;;
26062;SDS011;13837;48.562;12.108;2023-04-24T04:45:59;2.83;;;2.50;;
26062;SDS011;13837;48.562;12.108;2023-04-24T04:48:46;2.60;;;2.50;;
26062;SDS011;13837;48.562;12.108;2023-04-24T04:51:13;4.32;;;2.60;;
26062;SDS011;13837;48.562;12.108;2023-04-24T04:53:39;2.95;;;2.63;;
26062;SDS011;13837;48.562;12.108;2023-04-24T04:56:05;2.90;;;2.70;;
26062;SDS011;13837;48.562;12.108;2023-04-24T04:58:38;2.90;;;2.70;;
26062;SDS011;13837;48.562;12.108;2023-04-24T05:01:08;2.65;;;2.55;;
26062;SDS011;13837;48.562;12.108;2023-04-24T05:03:39;2.95;;;2.70;;
26062;SDS011;13837;48.562;12.108;2023-04-24T05:06:09;2.92;;;2.65;;
26062;SDS011;13837;48.562;12.108;2023-04-24T05:08:37;4.15;;;2.70;;
26062;SDS011;13837;48.562;12.108;2023-04-24T05:13:33;2.60;;;2.40;;
26062;SDS011;13837;48.562;12.108;2023-04-24T05:16:00;2.88;;;2.63;;
26062;SDS011;13837;48.562;12.108;2023-04-24T05:18:28;3.35;;;2.90;;
26062;SDS011;13837;48.562;12.108;2023-04-24T05:20:55;2.67;;;2.50;;
26062;SDS011;13837;48.562;12.108;2023-04-24T05:23:22;4.20;;;3.13;;
26062;SDS011;13837;48.562;12.108;2023-04-24T05:25:51;3.45;;;2.70;;
26062;SDS011;13837;48.562;12.108;2023-04-24T05:28:18;3.75;;;2.70;;
26062;SDS011;13837;48.562;12.108;2023-04-24T05:30:54;3.00;;;2.80;;
26062;SDS011;13837;48.562;12.108;2023-04-24T05:33:23;4.93;;;3.08;;
26062;SDS011;13837;48.562;12.108;2023-04-24T05:35:49;3.63;;;3.10;;
26062;SDS011;13837;48.562;12.108;2023-04-24T05:38:15;3.30;;;3.00;;
26062;SDS011;13837;48.562;12.108;2023-04-24T05:40:45;3.92;;;3.60;;
26062;SDS011;13837;48.562;12.108;2023-04-24T05:43:11;5.15;;;3.83;;
26062;SDS011;13837;48.562;12.108;2023-04-24T05:45:37;4.45;;;3.38;;
26062;SDS011;13837;48.562;12.108;2023-04-24T05:48:04;5.78;;;3.70;;
26062;SDS011;13837;48.562;12.108;2023-04-24T05:50:31;4.30;;;3.60;;
26062;SDS011;13837;48.562;12.108;2023-04-24T05:52:57;3.63;;;3.17;;
26062;SDS011;13837;48.562;12.108;2023-04-24T05:55:28;3.20;;;2.90;;
26062;SDS011;13837;48.562;12.108;2023-04-24T05:57:54;3.03;;;2.60;;
26062;SDS011;13837;48.562;12.108;2023-04-24T06:00:20;7.53;;;2.72;;
26062;SDS011;13837;48.562;12.108;2023-04-24T06:02:55;3.22;;;3.03;;
26062;SDS011;13837;48.562;12.108;2023-04-24T06:05:22;2.80;;;2.60;;
26062;SDS011;13837;48.562;12.108;2023-04-24T06:07:51;4.35;;;2.83;;
26062;SDS011;13837;48.562;12.108;2023-04-24T06:10:20;6.00;;;3.10;;
26062;SDS011;13837;48.562;12.108;2023-04-24T06:12:46;2.63;;;2.42;;
26062;SDS011;13837;48.562;12.108;2023-04-24T06:15:15;3.50;;;2.78;;
26062;SDS011;13837;48.562;12.108;2023-04-24T06:18:04;3.45;;;2.83;;
26062;SDS011;13837;48.562;12.108;2023-04-24T06:20:30;6.72;;;2.72;;
26062;SDS011;13837;48.562;12.108;2023-04-24T06:22:56;2.88;;;2.72;;
26062;SDS011;13837;48.562;12.108;2023-04-24T06:25:24;3.00;;;2.60;;
26062;SDS011;13837;48.562;12.108;2023-04-24T06:27:51;3.17;;;2.97;;
26062;SDS011;13837;48.562;12.108;2023-04-24T06:30:18;4.30;;;2.92;;
26062;SDS011;13837;48.562;12.108;2023-04-24T06:32:44;3.00;;;2.60;;
26062;SDS011;13837;48.562;12.108;2023-04-24T06:35:10;3.17;;;2.88;;
26062;SDS011;13837;48.562;12.108;2023-04-24T06:37:38;3.65;;;3.35;;
26062;SDS011;13837;48.562;12.108;2023-04-24T06:40:05;3.65;;;2.70;;
26062;SDS011;13837;48.562;12.108;2023-04-24T06:42:31;4.95;;;2.97;;
26062;SDS011;13837;48.562;12.108;2023-04-24T06:44:57;3.05;;;2.80;;
26062;SDS011;13837;48.562;12.108;2023-04-24T06:47:23;4.55;;;2.60;;
26062;SDS011;13837;48.562;12.108;2023-04-24T06:49:49;2.97;;;2.67;;
26062;SDS011;13837;48.562;12.108;2023-04-24T06:52:17;3.10;;;2.70;;
26062;SDS011;13837;48.562;12.108;2023-04-24T06:54:44;4.43;;;2.80;;
26062;SDS011;13837;48.562;12.108;2023-04-24T06:57:10;2.95;;;2.72;;
26062;SDS011;13837;48.562;12.108;2023-04-24T06:59:36;3.08;;;2.88;;
26062;SDS011;13837;48.562;12.108;2023-04-24T07:02:02;3.03;;;2.72;;
26062;SDS011;13837;48.562;12.108;2023-04-24T07:04:29;2.80;;;2.60;;
26062;SDS011;13837;48.562;12.108;2023-04-24T07:06:56;4.20;;;2.67;;
26062;SDS011;13837;48.562;12.108;2023-04-24T07:09:23;2.78;;;2.58;;
26062;SDS011;13837;48.562;12.108;2023-04-24T07:11:50;2.70;;;2.50;;
26062;SDS011;13837;48.562;12.108;2023-04-24T07:14:16;3.25;;;2.30;;
26062;SDS011;13837;48.562;12.108;2023-04-24T07:16:43;2.85;;;2.50;;
26062;SDS011;13837;48.562;12.108;2023-04-24T07:19:10;2.63;;;2.42;;
26062;SDS011;13837;48.562;12.108;2023-04-24T07:21:36;2.30;;;2.20;;
26062;SDS011;13837;48.562;12.108;2023-04-24T07:24:02;2.92;;;2.60;;
26062;SDS011;13837;48.562;12.108;2023-04-24T07:26:29;2.30;;;2.10;;
26062;SDS011;13837;48.562;12.108;2023-04-24T07:28:55;3.28;;;2.50;;
26062;SDS011;13837;48.562;12.108;2023-04-24T07:31:21;2.13;;;2.03;;
26062;SDS011;13837;48.562;12.108;2023-04-24T07:33:48;2.20;;;2.10;;
26062;SDS011;13837;48.562;12.108;2023-04-24T07:36:14;2.10;;;1.90;;
26062;SDS011;13837;48.562;12.108;2023-04-24T07:38:44;2.33;;;2.10;;
26062;SDS011;13837;48.562;12.108;2023-04-24T07:41:10;2.40;;;2.22;;
26062;SDS011;13837;48.562;12.108;2023-04-24T07:43:36;2.67;;;2.10;;
26062;SDS011;13837;48.562;12.108;2023-04-24T07:46:02;2.00;;;1.90;;
26062;SDS011;13837;48.562;12.108;2023-04-24T07:48:28;1.90;;;1.80;;
26062;SDS011;13837;48.562;12.108;2023-04-24T07:50:54;1.90;;;1.80;;
26062;SDS011;13837;48.562;12.108;2023-04-24T07:53:20;1.70;;;1.60;;
26062;SDS011;13837;48.562;12.108;2023-04-24T07:55:47;1.70;;;1.65;;
26062;SDS011;13837;48.562;12.108;2023-04-24T07:58:13;1.80;;;1.70;;
26062;SDS011;13837;48.562;12.108;2023-04-24T08:00:39;1.88;;;1.77;;
26062;SDS011;13837;48.562;12.108;2023-04-24T08:03:06;1.80;;;1.70;;
26062;SDS011;13837;48.562;12.108;2023-04-24T08:05:32;2.65;;;1.60;;
26062;SDS011;13837;48.562;12.108;2023-04-24T08:07:58;2.08;;;1.98;;
26062;SDS011;13837;48.562;12.108;2023-04-24T08:10:24;1.77;;;1.60;;
26062;SDS011;13837;48.562;12.108;2023-04-24T08:12:51;2.20;;;1.55;;
26062;SDS011;13837;48.562;12.108;2023-04-24T08:15:17;2.08;;;1.88;;
26062;SDS011;13837;48.562;12.108;2023-04-24T08:17:43;1.70;;;1.60;;
26062;SDS011;13837;48.562;12.108;2023-04-24T08:20:10;3.47;;;1.63;;
26062;SDS011;13837;48.562;12.108;2023-04-24T08:22:42;1.70;;;1.60;;
26062;SDS011;13837;48.562;12.108;2023-04-24T08:25:10;2.17;;;1.60;;
26062;SDS011;13837;48.562;12.108;2023-04-24T08:27:36;1.73;;;1.67;;
26062;SDS011;13837;48.562;12.108;2023-04-24T08:30:04;1.60;;;1.50;;
26062;SDS011;13837;48.562;12.108;2023-04-24T08:32:30;3.17;;;1.90;;
26062;SDS011;13837;48.562;12.108;2023-04-24T08:34:57;1.65;;;1.52;;
26062;SDS011;13837;48.562;12.108;2023-04-24T08:37:23;1.75;;;1.40;;
26062;SDS011;13837;48.562;12.108;2023-04-24T08:39:50;1.50;;;1.40;;
26062;SDS011;13837;48.562;12.108;2023-04-24T08:42:16;1.60;;;1.50;;
26062;SDS011;13837;48.562;12.108;2023-04-24T08:44:43;1.70;;;1.60;;
26062;SDS011;13837;48.562;12.108;2023-04-24T08:47:09;1.45;;;1.35;;
26062;SDS011;13837;48.562;12.108;2023-04-24T08:49:36;3.05;;;1.75;;
26062;SDS011;13837;48.562;12.108;2023-04-24T08:52:03;3.75;;;1.40;;
26062;SDS011;13837;48.562;12.108;2023-04-24T08:54:30;2.30;;;1.80;;
26062;SDS011;13837;48.562;12.108;2023-04-24T08:56:59;2.42;;;2.22;;
26062;SDS011;13837;48.562;12.108;2023-04-24T08:59:26;2.40;;;2.20;;
26062;SDS011;13837;48.562;12.108;2023-04-24T09:01:53;5.70;;;3.30;;
26062;SDS011;13837;48.562;12.108;2023-04-24T09:04:20;2.58;;;2.40;;
26062;SDS011;13837;48.562;12.108;2023-04-24T09:06:49;3.35;;;2.13;;
26062;SDS011;13837;48.562;12.108;2023-04-24T09:09:15;2.30;;;2.20;;
26062;SDS011;13837;48.562;12.108;2023-04-24T09:11:42;3.50;;;2.70;;
26062;SDS011;13837;48.562;12.108;2023-04-24T09:14:09;3.08;;;2.53;;
26062;SDS011;13837;48.562;12.108;2023-04-24T09:16:35;6.95;;;4.00;;
26062;SDS011;13837;48.562;12.108;2023-04-24T09:19:02;4.57;;;2.88;;
26062;SDS011;13837;48.562;12.108;2023-04-24T09:21:32;3.60;;;2.35;;
26062;SDS011;13837;48.562;12.108;2023-04-24T09:24:03;3.40;;;3.00;;
26062;SDS011;13837;48.562;12.108;2023-04-24T09:26:34;2.58;;;2.40;;
26062;SDS011;13837;48.562;12.108;2023-04-24T09:29:00;3.05;;;2.85;;
26062;SDS011;13837;48.562;12.108;2023-04-24T09:31:27;6.90;;;5.38;;
26062;SDS011;13837;48.562;12.108;2023-04-24T09:33:54;5.20;;;4.63;;
26062;SDS011;13837;48.562;12.108;2023-04-24T09:36:31;2.60;;;2.50;;
26062;SDS011;13837;48.562;12.108;2023-04-24T09:39:02;2.85;;;2.65;;
26062;SDS011;13837;48.562;12.108;2023-04-24T09:41:32;4.40;;;2.97;;
26062;SDS011;13837;48.562;12.108;2023-04-24T09:44:10;3.28;;;2.92;;
26062;SDS011;13837;48.562;12.108;2023-04-24T09:46:37;3.97;;;2.95;;
26062;SDS011;13837;48.562;12.108;2023-04-24T09:49:10;3.50;;;3.20;;
26062;SDS011;13837;48.562;12.108;2023-04-24T09:51:36;5.40;;;3.10;;
26062;SDS011;13837;48.562;12.108;2023-04-24T09:54:19;3.38;;;2.75;;
26062;SDS011;13837;48.562;12.108;2023-04-24T09:56:46;3.42;;;3.22;;
26062;SDS011;13837;48.562;12.108;2023-04-24T09:59:13;3.10;;;2.90;;
26062;SDS011;13837;48.562;12.108;2023-04-24T10:01:39;3.00;;;2.80;;
26062;SDS011;13837;48.562;12.108;2023-04-24T10:04:27;3.35;;;3.15;;
26062;SDS011;13837;48.562;12.108;2023-04-24T10:06:55;4.72;;;3.10;;
26062;SDS011;13837;48.562;12.108;2023-04-24T10:09:22;3.40;;;3.10;;
26062;SDS011;13837;48.562;12.108;2023-04-24T10:11:49;7.55;;;3.53;;
26062;SDS011;13837;48.562;12.108;2023-04-24T10:14:19;3.60;;;3.30;;
26062;SDS011;13837;48.562;12.108;2023-04-24T10:16:46;3.13;;;2.92;;
26062;SDS011;13837;48.562;12.108;2023-04-24T10:19:13;4.90;;;3.20;;
26062;SDS011;13837;48.562;12.108;2023-04-24T10:21:40;2.58;;;2.33;;
26062;SDS011;13837;48.562;12.108;2023-04-24T10:24:15;2.92;;;2.72;;
26062;SDS011;13837;48.562;12.108;2023-04-24T10:26:43;2.83;;;2.60;;
26062;SDS011;13837;48.562;12.108;2023-04-24T10:29:14;4.45;;;3.13;;
26062;SDS011;13837;48.562;12.108;2023-04-24T10:31:41;3.95;;;3.30;;
26062;SDS011;13837;48.562;12.108;2023-04-24T10:34:08;3.42;;;3.13;;
26062;SDS011;13837;48.562;12.108;2023-04-24T10:36:35;3.30;;;3.00;;
26062;SDS011;13837;48.562;12.108;2023-04-24T10:39:02;2.63;;;2.42;;
26062;SDS011;13837;48.562;12.108;2023-04-24T10:41:30;2.95;;;2.67;;
26062;SDS011;13837;48.562;12.108;2023-04-24T10:44:06;2.55;;;2.17;;
26062;SDS011;13837;48.562;12.108;2023-04-24T10:46:33;3.00;;;2.70;;
26062;SDS011;13837;48.562;12.108;2023-04-24T10:49:00;2.65;;;2.42;;
26062;SDS011;13837;48.562;12.108;2023-04-24T10:51:48;2.20;;;2.10;;
26062;SDS011;13837;48.562;12.108;2023-04-24T10:56:53;3.10;;;2.90;;
26062;SDS011;13837;48.562;12.108;2023-04-24T10:59:26;3.25;;;2.95;;
26062;SDS011;13837;48.562;12.108;2023-04-24T11:01:53;2.67;;;2.47;;
26062;SDS011;13837;48.562;12.108;2023-04-24T11:04:29;3.25;;;2.50;;
26062;SDS011;13837;48.562;12.108;2023-04-24T11:06:56;3.92;;;2.58;;
26062;SDS011;13837;48.562;12.108;2023-04-24T11:09:22;2.58;;;2.38;;
26062;SDS011;13837;48.562;12.108;2023-04-24T11:11:51;3.08;;;2.67;;
26062;SDS011;13837;48.562;12.108;2023-04-24T11:14:28;2.90;;;2.40;;
26062;SDS011;13837;48.562;12.108;2023-04-24T11:16:54;2.58;;;2.35;;
26062;SDS011;13837;48.562;12.108;2023-04-24T11:19:24;2.25;;;2.13;;
26062;SDS011;13837;48.562;12.108;2023-04-24T11:22:03;3.13;;;2.22;;
26062;SDS011;13837;48.562;12.108;2023-04-24T11:26:57;2.67;;;2.47;;
26062;SDS011;13837;48.562;12.108;2023-04-24T11:29:37;5.82;;;2.65;;
26062;SDS011;13837;48.562;12.108;2023-04-24T11:34:47;4.80;;;3.20;;
26062;SDS011;13837;48.562;12.108;2023-04-24T11:37:13;3.42;;;3.13;;
26062;SDS011;13837;48.562;12.108;2023-04-24T11:39:40;3.45;;;3.13;;
26062;SDS011;13837;48.562;12.108;2023-04-24T11:42:06;3.50;;;3.20;;
26062;SDS011;13837;48.562;12.108;2023-04-24T11:44:36;4.22;;;3.35;;
26062;SDS011;13837;48.562;12.108;2023-04-24T11:47:05;3.08;;;2.80;;
26062;SDS011;13837;48.562;12.108;2023-04-24T11:49:37;2.80;;;2.58;;
26062;SDS011;13837;48.562;12.108;2023-04-24T11:52:04;3.47;;;3.17;;
26062;SDS011;13837;48.562;12.108;2023-04-24T11:54:30;2.97;;;2.78;;
26062;SDS011;13837;48.562;12.108;2023-04-24T11:56:56;4.15;;;3.20;;
26062;SDS011;13837;48.562;12.108;2023-04-24T11:59:23;3.85;;;2.95;;
26062;SDS011;13837;48.562;12.108;2023-04-24T12:01:49;2.80;;;2.60;;
26062;SDS011;13837;48.562;12.108;2023-04-24T12:04:16;3.53;;;3.22;;
26062;SDS011;13837;48.562;12.108;2023-04-24T12:07:02;3.10;;;2.90;;
26062;SDS011;13837;48.562;12.108;2023-04-24T12:09:28;2.70;;;2.50;;
26062;SDS011;13837;48.562;12.108;2023-04-24T12:11:55;4.55;;;2.60;;
26062;SDS011;13837;48.562;12.108;2023-04-24T12:14:25;3.92;;;2.75;;
26062;SDS011;13837;48.562;12.108;2023-04-24T12:16:51;3.28;;;3.08;;
26062;SDS011;13837;48.562;12.108;2023-04-24T12:19:21;2.90;;;2.70;;
26062;SDS011;13837;48.562;12.108;2023-04-24T12:22:00;3.28;;;2.72;;
26062;SDS011;13837;48.562;12.108;2023-04-24T12:24:26;3.38;;;2.63;;
26062;SDS011;13837;48.562;12.108;2023-04-24T12:26:52;2.30;;;2.20;;
26062;SDS011;13837;48.562;12.108;2023-04-24T12:29:20;2.50;;;2.38;;
26062;SDS011;13837;48.562;12.108;2023-04-24T12:31:46;2.97;;;2.78;;
26062;SDS011;13837;48.562;12.108;2023-04-24T12:34:22;2.85;;;2.47;;
26062;SDS011;13837;48.562;12.108;2023-04-24T12:36:48;4.15;;;3.85;;
26062;SDS011;13837;48.562;12.108;2023-04-24T12:39:18;3.38;;;2.88;;
26062;SDS011;13837;48.562;12.108;2023-04-24T12:42:25;3.78;;;3.13;;
26062;SDS011;13837;48.562;12.108;2023-04-24T12:44:38;3.72;;;3.30;;
26062;SDS011;13837;48.562;12.108;2023-04-24T12:47:04;3.22;;;2.92;;
26062;SDS011;13837;48.562;12.108;2023-04-24T12:49:30;3.97;;;2.90;;
26062;SDS011;13837;48.562;12.108;2023-04-24T12:51:57;2.70;;;2.50;;
26062;SDS011;13837;48.562;12.108;2023-04-24T12:54:23;4.00;;;3.17;;
26062;SDS011;13837;48.562;12.108;2023-04-24T12:56:49;3.22;;;2.92;;
26062;SDS011;13837;48.562;12.108;2023-04-24T12:59:15;2.92;;;2.72;;
26062;SDS011;13837;48.562;12.108;2023-04-24T13:01:41;2.95;;;2.70;;
26062;SDS011;13837;48.562;12.108;2023-04-24T13:04:07;3.13;;;2.85;;
26062;SDS011;13837;48.562;12.108;2023-04-24T13:06:33;3.80;;;2.90;;
26062;SDS011;13837;48.562;12.108;2023-04-24T13:08:59;3.03;;;2.53;;
26062;SDS011;13837;48.562;12.108;2023-04-24T13:11:25;2.83;;;2.53;;
26062;SDS011;13837;48.562;12.108;2023-04-24T13:13:51;2.92;;;2.03;;
26062;SDS011;13837;48.562;12.108;2023-04-24T13:16:17;2.20;;;2.00;;
26062;SDS011;13837;48.562;12.108;2023-04-24T13:18:43;3.97;;;2.33;;
26062;SDS011;13837;48.562;12.108;2023-04-24T13:21:10;2.85;;;2.28;;
26062;SDS011;13837;48.562;12.108;2023-04-24T13:23:36;2.40;;;2.20;;
26062;SDS011;13837;48.562;12.108;2023-04-24T13:26:02;2.20;;;2.00;;
26062;SDS011;13837;48.562;12.108;2023-04-24T13:28:28;2.40;;;2.30;;
26062;SDS011;13837;48.562;12.108;2023-04-24T13:30:55;2.75;;;2.03;;
26062;SDS011;13837;48.562;12.108;2023-04-24T13:33:21;3.78;;;1.98;;
26062;SDS011;13837;48.562;12.108;2023-04-24T13:35:47;3.22;;;1.95;;
26062;SDS011;13837;48.562;12.108;2023-04-24T13:38:13;1.90;;;1.80;;
26062;SDS011;13837;48.562;12.108;2023-04-24T13:40:39;1.90;;;1.80;;
26062;SDS011;13837;48.562;12.108;2023-04-24T13:43:05;1.95;;;1.85;;
26062;SDS011;13837;48.562;12.108;2023-04-24T13:45:31;1.90;;;1.40;;
26062;SDS011;13837;48.562;12.108;2023-04-24T13:47:57;3.95;;;1.95;;
26062;SDS011;13837;48.562;12.108;2023-04-24T13:50:24;2.65;;;1.58;;
26062;SDS011;13837;48.562;12.108;2023-04-24T13:52:50;1.83;;;1.55;;
26062;SDS011;13837;48.562;12.108;2023-04-24T13:55:16;1.77;;;1.70;;
26062;SDS011;13837;48.562;12.108;2023-04-24T13:57:42;2.83;;;2.20;;
26062;SDS011;13837;48.562;12.108;2023-04-24T14:00:09;2.45;;;2.00;;
26062;SDS011;13837;48.562;12.108;2023-04-24T14:02:35;3.42;;;1.90;;
26062;SDS011;13837;48.562;12.108;2023-04-24T14:05:02;1.73;;;1.63;;
26062;SDS011;13837;48.562;12.108;2023-04-24T14:07:28;2.20;;;2.00;;
26062;SDS011;13837;48.562;12.108;2023-04-24T14:12:24;2.60;;;1.60;;
26062;SDS011;13837;48.562;12.108;2023-04-24T14:14:50;1.73;;;1.63;;
26062;SDS011;13837;48.562;12.108;2023-04-24T14:17:16;4.32;;;1.60;;
26062;SDS011;13837;48.562;12.108;2023-04-24T14:19:43;3.80;;;1.60;;
26062;SDS011;13837;48.562;12.108;2023-04-24T14:22:09;4.22;;;1.60;;
26062;SDS011;13837;48.562;12.108;2023-04-24T14:24:35;2.35;;;1.75;;
26062;SDS011;13837;48.562;12.108;2023-04-24T14:27:01;5.13;;;1.80;;
26062;SDS011;13837;48.562;12.108;2023-04-24T14:29:28;3.55;;;2.05;;
26062;SDS011;13837;48.562;12.108;2023-04-24T14:31:54;4.35;;;2.33;;
26062;SDS011;13837;48.562;12.108;2023-04-24T14:34:20;4.65;;;1.88;;
26062;SDS011;13837;48.562;12.108;2023-04-24T14:36:46;5.82;;;1.58;;
26062;SDS011;13837;48.562;12.108;2023-04-24T14:39:12;1.90;;;1.80;;
26062;SDS011;13837;48.562;12.108;2023-04-24T14:41:38;1.60;;;1.50;;
26062;SDS011;13837;48.562;12.108;2023-04-24T14:44:05;1.80;;;1.70;;
26062;SDS011;13837;48.562;12.108;2023-04-24T14:46:31;1.88;;;1.70;;
26062;SDS011;13837;48.562;12.108;2023-04-24T14:48:57;1.95;;;1.85;;
26062;SDS011;13837;48.562;12.108;2023-04-24T14:51:23;2.78;;;1.60;;